sensor_id;sensor_type;location;lat;lon;timestamp;pressure;altitude;pressure_sealevel;temperature;humidity
70027;BME280;57506;50.092;15.804;2022-07-24T00:01:37;99491.81;;;15.62;100.00
70027;BME280;57506;50.092;15.804;2022-07-24T00:04:03;99492.31;;;15.46;100.00
70027;BME280;57506;50.092;15.804;2022-07-24T00:06:29;99484.19;;;15.01;100.00
70027;BME280;57506;50.092;15.804;2022-07-24T00:08:55;99490.06;;;14.98;100.00
70027;BME280;57506;50.092;15.804;2022-07-24T00:11:21;99487.03;;;14.75;100.00
70027;BME280;57506;50.092;15.804;2022-07-24T00:13:46;99499.34;;;14.64;100.00
70027;BME280;57506;50.092;15.804;2022-07-24T00:16:12;99502.94;;;14.51;100.00
70027;BME280;57506;50.092;15.804;2022-07-24T00:18:37;99504.81;;;14.51;100.00
70027;BME280;57506;50.092;15.804;2022-07-24T00:21:04;99488.50;;;14.70;100.00
70027;BME280;57506;50.092;15.804;2022-07-24T00:23:29;99501.00;;;14.72;100.00
70027;BME280;57506;50.092;15.804;2022-07-24T00:25:55;99501.88;;;14.59;100.00
70027;BME280;57506;50.092;15.804;2022-07-24T00:28:21;99501.47;;;14.55;100.00
70027;BME280;57506;50.092;15.804;2022-07-24T00:30:47;99510.47;;;14.43;100.00
70027;BME280;57506;50.092;15.804;2022-07-24T00:33:12;99501.44;;;14.29;100.00
70027;BME280;57506;50.092;15.804;2022-07-24T00:35:38;99507.09;;;14.14;100.00
70027;BME280;57506;50.092;15.804;2022-07-24T00:38:04;99508.16;;;14.07;100.00
70027;BME280;57506;50.092;15.804;2022-07-24T00:40:30;99509.41;;;13.91;100.00
70027;BME280;57506;50.092;15.804;2022-07-24T00:42:57;99498.56;;;13.84;100.00
70027;BME280;57506;50.092;15.804;2022-07-24T00:45:22;99505.25;;;13.95;100.00
70027;BME280;57506;50.092;15.804;2022-07-24T00:47:48;99492.50;;;13.76;100.00
70027;BME280;57506;50.092;15.804;2022-07-24T00:50:14;99504.38;;;13.81;100.00
70027;BME280;57506;50.092;15.804;2022-07-24T00:52:40;99513.34;;;13.75;100.00
70027;BME280;57506;50.092;15.804;2022-07-24T00:55:06;99501.25;;;13.71;100.00
70027;BME280;57506;50.092;15.804;2022-07-24T00:57:33;99507.31;;;13.73;100.00
70027;BME280;57506;50.092;15.804;2022-07-24T00:59:58;99496.03;;;13.83;100.00
70027;BME280;57506;50.092;15.804;2022-07-24T01:02:24;99498.78;;;14.09;100.00
70027;BME280;57506;50.092;15.804;2022-07-24T01:04:50;99491.88;;;14.13;100.00
70027;BME280;57506;50.092;15.804;2022-07-24T01:07:16;99476.06;;;14.04;100.00
70027;BME280;57506;50.092;15.804;2022-07-24T01:09:42;99490.03;;;13.94;100.00
70027;BME280;57506;50.092;15.804;2022-07-24T01:12:08;99492.31;;;13.77;100.00
70027;BME280;57506;50.092;15.804;2022-07-24T01:14:34;99487.47;;;13.46;100.00
70027;BME280;57506;50.092;15.804;2022-07-24T01:16:59;99485.78;;;13.39;100.00
70027;BME280;57506;50.092;15.804;2022-07-24T01:19:25;99497.25;;;13.41;100.00
70027;BME280;57506;50.092;15.804;2022-07-24T01:21:52;99493.50;;;13.48;100.00
70027;BME280;57506;50.092;15.804;2022-07-24T01:24:18;99476.00;;;13.31;100.00
70027;BME280;57506;50.092;15.804;2022-07-24T01:26:44;99478.88;;;13.23;100.00
70027;BME280;57506;50.092;15.804;2022-07-24T01:29:10;99497.75;;;13.10;100.00
70027;BME280;57506;50.092;15.804;2022-07-24T01:31:36;99496.03;;;12.95;100.00
70027;BME280;57506;50.092;15.804;2022-07-24T01:34:02;99492.69;;;12.93;100.00
70027;BME280;57506;50.092;15.804;2022-07-24T01:36:28;99497.84;;;12.82;100.00
70027;BME280;57506;50.092;15.804;2022-07-24T01:38:53;99495.09;;;12.75;100.00
70027;BME280;57506;50.092;15.804;2022-07-24T01:41:19;99501.94;;;12.71;100.00
70027;BME280;57506;50.092;15.804;2022-07-24T01:43:44;99496.91;;;12.61;100.00
70027;BME280;57506;50.092;15.804;2022-07-24T01:46:10;99501.72;;;12.66;100.00
70027;BME280;57506;50.092;15.804;2022-07-24T01:48:37;99482.84;;;12.79;100.00
70027;BME280;57506;50.092;15.804;2022-07-24T01:51:03;99498.25;;;12.85;100.00
70027;BME280;57506;50.092;15.804;2022-07-24T01:53:30;99498.69;;;12.89;100.00
70027;BME280;57506;50.092;15.804;2022-07-24T01:55:56;99491.59;;;12.88;100.00
70027;BME280;57506;50.092;15.804;2022-07-24T01:58:22;99488.94;;;12.94;100.00
70027;BME280;57506;50.092;15.804;2022-07-24T02:00:48;99493.75;;;13.06;100.00
70027;BME280;57506;50.092;15.804;2022-07-24T02:03:13;99490.91;;;13.14;100.00
70027;BME280;57506;50.092;15.804;2022-07-24T02:05:39;99500.19;;;13.52;100.00
70027;BME280;57506;50.092;15.804;2022-07-24T02:08:05;99476.41;;;13.41;100.00
70027;BME280;57506;50.092;15.804;2022-07-24T02:10:30;99485.75;;;13.25;100.00
70027;BME280;57506;50.092;15.804;2022-07-24T02:12:56;99495.69;;;13.12;100.00
70027;BME280;57506;50.092;15.804;2022-07-24T02:15:23;99498.94;;;13.01;100.00
70027;BME280;57506;50.092;15.804;2022-07-24T02:17:54;99499.91;;;12.86;100.00
70027;BME280;57506;50.092;15.804;2022-07-24T02:20:20;99493.97;;;12.98;100.00
70027;BME280;57506;50.092;15.804;2022-07-24T02:22:45;99478.31;;;13.47;100.00
70027;BME280;57506;50.092;15.804;2022-07-24T02:25:12;99487.53;;;14.12;100.00
70027;BME280;57506;50.092;15.804;2022-07-24T02:27:38;99475.00;;;14.44;100.00
70027;BME280;57506;50.092;15.804;2022-07-24T02:30:05;99483.97;;;14.45;100.00
70027;BME280;57506;50.092;15.804;2022-07-24T02:32:31;99480.63;;;14.43;100.00
70027;BME280;57506;50.092;15.804;2022-07-24T02:34:57;99485.19;;;14.35;100.00
70027;BME280;57506;50.092;15.804;2022-07-24T02:37:23;99491.06;;;14.19;100.00
70027;BME280;57506;50.092;15.804;2022-07-24T02:39:48;99495.41;;;13.81;100.00
70027;BME280;57506;50.092;15.804;2022-07-24T02:42:14;99498.50;;;13.51;100.00
70027;BME280;57506;50.092;15.804;2022-07-24T02:44:39;99497.28;;;13.67;100.00
70027;BME280;57506;50.092;15.804;2022-07-24T02:47:05;99491.03;;;13.66;100.00
70027;BME280;57506;50.092;15.804;2022-07-24T02:49:30;99494.59;;;13.87;100.00
70027;BME280;57506;50.092;15.804;2022-07-24T02:51:56;99488.13;;;14.01;100.00
70027;BME280;57506;50.092;15.804;2022-07-24T02:54:21;99505.22;;;14.21;100.00
70027;BME280;57506;50.092;15.804;2022-07-24T02:56:47;99498.16;;;14.27;100.00
70027;BME280;57506;50.092;15.804;2022-07-24T02:59:12;99510.41;;;14.29;100.00
70027;BME280;57506;50.092;15.804;2022-07-24T03:01:38;99499.59;;;14.23;100.00
70027;BME280;57506;50.092;15.804;2022-07-24T03:04:03;99509.22;;;14.12;100.00
70027;BME280;57506;50.092;15.804;2022-07-24T03:06:29;99505.84;;;14.04;100.00
70027;BME280;57506;50.092;15.804;2022-07-24T03:08:54;99515.63;;;13.85;100.00
70027;BME280;57506;50.092;15.804;2022-07-24T03:11:20;99517.72;;;13.63;100.00
70027;BME280;57506;50.092;15.804;2022-07-24T03:13:45;99510.19;;;13.45;100.00
70027;BME280;57506;50.092;15.804;2022-07-24T03:16:11;99521.41;;;13.42;100.00
70027;BME280;57506;50.092;15.804;2022-07-24T03:18:37;99538.00;;;13.32;100.00
70027;BME280;57506;50.092;15.804;2022-07-24T03:21:02;99541.59;;;13.40;100.00
70027;BME280;57506;50.092;15.804;2022-07-24T03:23:28;99526.63;;;13.44;100.00
70027;BME280;57506;50.092;15.804;2022-07-24T03:25:53;99533.94;;;13.56;100.00
70027;BME280;57506;50.092;15.804;2022-07-24T03:28:20;99543.19;;;13.95;100.00
70027;BME280;57506;50.092;15.804;2022-07-24T03:30:46;99533.16;;;14.02;100.00
70027;BME280;57506;50.092;15.804;2022-07-24T03:33:11;99538.38;;;14.23;100.00
70027;BME280;57506;50.092;15.804;2022-07-24T03:35:37;99542.97;;;14.16;100.00
70027;BME280;57506;50.092;15.804;2022-07-24T03:38:03;99541.50;;;14.14;100.00
70027;BME280;57506;50.092;15.804;2022-07-24T03:40:28;99539.63;;;14.14;100.00
70027;BME280;57506;50.092;15.804;2022-07-24T03:42:54;99531.28;;;14.16;100.00
70027;BME280;57506;50.092;15.804;2022-07-24T03:45:19;99524.19;;;14.34;100.00
70027;BME280;57506;50.092;15.804;2022-07-24T03:47:45;99533.78;;;14.50;100.00
70027;BME280;57506;50.092;15.804;2022-07-24T03:50:10;99535.69;;;14.50;100.00
70027;BME280;57506;50.092;15.804;2022-07-24T03:52:36;99525.66;;;14.57;100.00
70027;BME280;57506;50.092;15.804;2022-07-24T03:55:02;99529.38;;;14.62;100.00
70027;BME280;57506;50.092;15.804;2022-07-24T03:57:28;99539.81;;;14.65;100.00
70027;BME280;57506;50.092;15.804;2022-07-24T03:59:53;99538.13;;;14.78;100.00
70027;BME280;57506;50.092;15.804;2022-07-24T04:02:19;99534.97;;;14.81;100.00
70027;BME280;57506;50.092;15.804;2022-07-24T04:04:44;99540.00;;;14.84;100.00
70027;BME280;57506;50.092;15.804;2022-07-24T04:07:10;99529.34;;;14.89;100.00
70027;BME280;57506;50.092;15.804;2022-07-24T04:09:35;99529.50;;;14.94;100.00
70027;BME280;57506;50.092;15.804;2022-07-24T04:12:01;99526.41;;;14.90;100.00
70027;BME280;57506;50.092;15.804;2022-07-24T04:14:27;99534.09;;;15.07;100.00
70027;BME280;57506;50.092;15.804;2022-07-24T04:16:52;99533.41;;;15.18;100.00
70027;BME280;57506;50.092;15.804;2022-07-24T04:19:18;99534.22;;;15.25;100.00
70027;BME280;57506;50.092;15.804;2022-07-24T04:21:44;99523.31;;;15.31;100.00
70027;BME280;57506;50.092;15.804;2022-07-24T04:24:09;99532.41;;;15.50;100.00
70027;BME280;57506;50.092;15.804;2022-07-24T04:26:35;99529.28;;;15.53;100.00
70027;BME280;57506;50.092;15.804;2022-07-24T04:29:00;99519.22;;;15.60;100.00
70027;BME280;57506;50.092;15.804;2022-07-24T04:31:26;99538.38;;;15.72;100.00
70027;BME280;57506;50.092;15.804;2022-07-24T04:33:52;99536.84;;;15.83;100.00
70027;BME280;57506;50.092;15.804;2022-07-24T04:36:17;99528.03;;;15.87;100.00
70027;BME280;57506;50.092;15.804;2022-07-24T04:38:43;99536.31;;;15.99;100.00
70027;BME280;57506;50.092;15.804;2022-07-24T04:41:08;99537.31;;;16.04;100.00
70027;BME280;57506;50.092;15.804;2022-07-24T04:43:34;99541.50;;;16.07;100.00
70027;BME280;57506;50.092;15.804;2022-07-24T04:46:00;99538.72;;;16.14;100.00
70027;BME280;57506;50.092;15.804;2022-07-24T04:48:25;99543.66;;;16.23;100.00
70027;BME280;57506;50.092;15.804;2022-07-24T04:50:51;99550.47;;;16.32;100.00
70027;BME280;57506;50.092;15.804;2022-07-24T04:53:17;99551.28;;;16.39;100.00
70027;BME280;57506;50.092;15.804;2022-07-24T04:55:43;99543.66;;;16.48;100.00
70027;BME280;57506;50.092;15.804;2022-07-24T04:58:08;99557.19;;;16.55;100.00
70027;BME280;57506;50.092;15.804;2022-07-24T05:00:34;99560.50;;;16.57;100.00
70027;BME280;57506;50.092;15.804;2022-07-24T05:02:59;99554.38;;;16.68;100.00
70027;BME280;57506;50.092;15.804;2022-07-24T05:05:25;99568.38;;;16.71;100.00
70027;BME280;57506;50.092;15.804;2022-07-24T05:07:50;99558.53;;;16.70;100.00
70027;BME280;57506;50.092;15.804;2022-07-24T05:10:16;99567.22;;;16.79;100.00
70027;BME280;57506;50.092;15.804;2022-07-24T05:12:42;99573.69;;;16.85;100.00
70027;BME280;57506;50.092;15.804;2022-07-24T05:15:07;99576.53;;;16.90;100.00
70027;BME280;57506;50.092;15.804;2022-07-24T05:17:34;99585.34;;;17.10;100.00
70027;BME280;57506;50.092;15.804;2022-07-24T05:20:01;99582.16;;;17.13;100.00
70027;BME280;57506;50.092;15.804;2022-07-24T05:22:27;99601.38;;;17.18;100.00
70027;BME280;57506;50.092;15.804;2022-07-24T05:24:52;99594.50;;;17.16;100.00
70027;BME280;57506;50.092;15.804;2022-07-24T05:27:18;99603.88;;;17.20;100.00
70027;BME280;57506;50.092;15.804;2022-07-24T05:29:43;99594.19;;;17.24;100.00
70027;BME280;57506;50.092;15.804;2022-07-24T05:32:09;99593.72;;;17.45;100.00
70027;BME280;57506;50.092;15.804;2022-07-24T05:34:35;99592.59;;;17.53;100.00
70027;BME280;57506;50.092;15.804;2022-07-24T05:37:00;99600.84;;;17.64;100.00
70027;BME280;57506;50.092;15.804;2022-07-24T05:39:26;99599.91;;;17.70;100.00
70027;BME280;57506;50.092;15.804;2022-07-24T05:41:51;99612.41;;;17.78;100.00
70027;BME280;57506;50.092;15.804;2022-07-24T05:44:17;99602.56;;;17.77;100.00
70027;BME280;57506;50.092;15.804;2022-07-24T05:46:43;99613.69;;;17.75;100.00
70027;BME280;57506;50.092;15.804;2022-07-24T05:49:10;99621.38;;;17.97;100.00
70027;BME280;57506;50.092;15.804;2022-07-24T05:51:35;99615.06;;;17.85;100.00
70027;BME280;57506;50.092;15.804;2022-07-24T05:54:01;99616.47;;;17.87;100.00
70027;BME280;57506;50.092;15.804;2022-07-24T05:56:28;99612.25;;;18.03;100.00
70027;BME280;57506;50.092;15.804;2022-07-24T05:58:53;99607.53;;;17.98;100.00
70027;BME280;57506;50.092;15.804;2022-07-24T06:01:19;99604.00;;;18.09;99.87
70027;BME280;57506;50.092;15.804;2022-07-24T06:03:45;99603.19;;;18.21;99.88
70027;BME280;57506;50.092;15.804;2022-07-24T06:06:10;99600.13;;;18.17;98.07
70027;BME280;57506;50.092;15.804;2022-07-24T06:08:36;99609.16;;;18.29;98.20
70027;BME280;57506;50.092;15.804;2022-07-24T06:11:02;99614.41;;;18.42;99.64
70027;BME280;57506;50.092;15.804;2022-07-24T06:13:27;99613.56;;;18.42;96.57
70027;BME280;57506;50.092;15.804;2022-07-24T06:15:53;99624.03;;;18.57;97.23
70027;BME280;57506;50.092;15.804;2022-07-24T06:18:18;99619.09;;;18.77;96.89
70027;BME280;57506;50.092;15.804;2022-07-24T06:20:44;99619.69;;;18.79;95.23
70027;BME280;57506;50.092;15.804;2022-07-24T06:23:09;99617.06;;;18.84;94.55
70027;BME280;57506;50.092;15.804;2022-07-24T06:25:35;99610.53;;;18.85;93.93
70027;BME280;57506;50.092;15.804;2022-07-24T06:28:00;99609.00;;;18.89;94.10
70027;BME280;57506;50.092;15.804;2022-07-24T06:30:27;99602.59;;;18.83;93.02
70027;BME280;57506;50.092;15.804;2022-07-24T06:32:55;99621.59;;;19.02;91.12
70027;BME280;57506;50.092;15.804;2022-07-24T06:35:21;99618.75;;;19.08;90.88
70027;BME280;57506;50.092;15.804;2022-07-24T06:37:47;99618.47;;;19.21;91.35
70027;BME280;57506;50.092;15.804;2022-07-24T06:40:13;99619.16;;;19.40;92.15
70027;BME280;57506;50.092;15.804;2022-07-24T06:42:39;99615.47;;;19.58;91.72
70027;BME280;57506;50.092;15.804;2022-07-24T06:45:05;99619.25;;;19.69;90.63
70027;BME280;57506;50.092;15.804;2022-07-24T06:47:31;99621.84;;;19.75;89.88
70027;BME280;57506;50.092;15.804;2022-07-24T06:49:56;99617.97;;;19.88;89.01
70027;BME280;57506;50.092;15.804;2022-07-24T06:52:22;99626.84;;;19.78;86.19
70027;BME280;57506;50.092;15.804;2022-07-24T06:54:48;99615.13;;;19.95;90.44
70027;BME280;57506;50.092;15.804;2022-07-24T06:57:14;99609.09;;;20.09;88.08
70027;BME280;57506;50.092;15.804;2022-07-24T06:59:40;99625.41;;;20.04;83.74
70027;BME280;57506;50.092;15.804;2022-07-24T07:02:06;99618.44;;;19.97;85.67
70027;BME280;57506;50.092;15.804;2022-07-24T07:04:32;99614.91;;;20.13;88.72
70027;BME280;57506;50.092;15.804;2022-07-24T07:06:57;99610.06;;;20.03;81.75
70027;BME280;57506;50.092;15.804;2022-07-24T07:09:23;99614.53;;;19.92;83.43
70027;BME280;57506;50.092;15.804;2022-07-24T07:11:49;99607.81;;;20.00;84.47
70027;BME280;57506;50.092;15.804;2022-07-24T07:14:14;99601.66;;;20.21;86.19
70027;BME280;57506;50.092;15.804;2022-07-24T07:16:40;99609.44;;;20.41;84.59
70027;BME280;57506;50.092;15.804;2022-07-24T07:19:05;99610.50;;;20.40;79.88
70027;BME280;57506;50.092;15.804;2022-07-24T07:21:31;99618.78;;;20.62;76.31
70027;BME280;57506;50.092;15.804;2022-07-24T07:23:57;99601.56;;;20.45;74.32
70027;BME280;57506;50.092;15.804;2022-07-24T07:26:23;99609.00;;;20.49;73.45
70027;BME280;57506;50.092;15.804;2022-07-24T07:28:49;99608.59;;;20.57;75.07
70027;BME280;57506;50.092;15.804;2022-07-24T07:31:14;99608.75;;;20.51;69.81
70027;BME280;57506;50.092;15.804;2022-07-24T07:33:40;99612.91;;;20.53;71.67
70027;BME280;57506;50.092;15.804;2022-07-24T07:36:06;99601.72;;;20.55;70.40
70027;BME280;57506;50.092;15.804;2022-07-24T07:38:32;99611.47;;;20.84;74.80
70027;BME280;57506;50.092;15.804;2022-07-24T07:40:58;99612.22;;;20.63;71.40
70027;BME280;57506;50.092;15.804;2022-07-24T07:43:24;99611.00;;;20.71;73.25
70027;BME280;57506;50.092;15.804;2022-07-24T07:45:49;99607.44;;;20.70;73.75
70027;BME280;57506;50.092;15.804;2022-07-24T07:48:16;99605.91;;;20.96;72.09
70027;BME280;57506;50.092;15.804;2022-07-24T07:50:41;99606.91;;;21.07;71.89
70027;BME280;57506;50.092;15.804;2022-07-24T07:53:07;99613.22;;;21.07;71.67
70027;BME280;57506;50.092;15.804;2022-07-24T07:55:33;99603.38;;;21.11;72.00
70027;BME280;57506;50.092;15.804;2022-07-24T07:58:00;99620.41;;;21.30;70.29
70027;BME280;57506;50.092;15.804;2022-07-24T08:00:26;99619.44;;;21.19;68.72
70027;BME280;57506;50.092;15.804;2022-07-24T08:02:51;99613.25;;;21.12;68.78
70027;BME280;57506;50.092;15.804;2022-07-24T08:05:17;99617.22;;;21.38;67.30
70027;BME280;57506;50.092;15.804;2022-07-24T08:07:43;99613.19;;;21.46;67.22
70027;BME280;57506;50.092;15.804;2022-07-24T08:10:09;99614.19;;;21.56;68.68
70027;BME280;57506;50.092;15.804;2022-07-24T08:12:35;99620.09;;;21.70;64.31
70027;BME280;57506;50.092;15.804;2022-07-24T08:15:01;99610.66;;;21.61;62.91
70027;BME280;57506;50.092;15.804;2022-07-24T08:17:26;99616.69;;;21.58;61.56
70027;BME280;57506;50.092;15.804;2022-07-24T08:19:52;99615.63;;;21.86;63.88
70027;BME280;57506;50.092;15.804;2022-07-24T08:22:18;99627.25;;;21.71;62.50
70027;BME280;57506;50.092;15.804;2022-07-24T08:24:43;99622.81;;;21.92;62.17
70027;BME280;57506;50.092;15.804;2022-07-24T08:27:09;99612.81;;;22.03;61.28
70027;BME280;57506;50.092;15.804;2022-07-24T08:29:34;99608.69;;;22.00;63.06
70027;BME280;57506;50.092;15.804;2022-07-24T08:32:00;99616.44;;;22.08;61.27
70027;BME280;57506;50.092;15.804;2022-07-24T08:34:26;99611.78;;;22.09;61.11
70027;BME280;57506;50.092;15.804;2022-07-24T08:36:51;99603.50;;;22.04;61.48
70027;BME280;57506;50.092;15.804;2022-07-24T08:39:17;99607.50;;;22.18;61.98
70027;BME280;57506;50.092;15.804;2022-07-24T08:41:43;99625.03;;;22.17;61.56
70027;BME280;57506;50.092;15.804;2022-07-24T08:44:09;99637.22;;;22.26;61.34
70027;BME280;57506;50.092;15.804;2022-07-24T08:46:40;99621.88;;;22.30;62.23
70027;BME280;57506;50.092;15.804;2022-07-24T08:49:10;99616.00;;;22.48;61.36
70027;BME280;57506;50.092;15.804;2022-07-24T08:51:38;99621.69;;;22.37;60.40
70027;BME280;57506;50.092;15.804;2022-07-24T08:54:06;99622.44;;;22.32;61.05
70027;BME280;57506;50.092;15.804;2022-07-24T08:56:32;99625.53;;;22.41;61.73
70027;BME280;57506;50.092;15.804;2022-07-24T08:59:02;99630.78;;;22.42;61.00
70027;BME280;57506;50.092;15.804;2022-07-24T09:01:29;99626.28;;;22.31;61.12
70027;BME280;57506;50.092;15.804;2022-07-24T09:03:55;99623.78;;;22.29;60.54
70027;BME280;57506;50.092;15.804;2022-07-24T09:06:20;99621.72;;;22.42;61.35
70027;BME280;57506;50.092;15.804;2022-07-24T09:09:03;99610.59;;;22.58;60.50
70027;BME280;57506;50.092;15.804;2022-07-24T09:11:29;99621.84;;;22.57;59.50
70027;BME280;57506;50.092;15.804;2022-07-24T09:14:01;99615.00;;;22.59;59.90
70027;BME280;57506;50.092;15.804;2022-07-24T09:16:46;99619.38;;;22.87;57.70
70027;BME280;57506;50.092;15.804;2022-07-24T09:19:13;99615.50;;;22.83;59.54
70027;BME280;57506;50.092;15.804;2022-07-24T09:21:41;99612.09;;;22.76;57.76
70027;BME280;57506;50.092;15.804;2022-07-24T09:24:27;99617.31;;;23.05;57.50
70027;BME280;57506;50.092;15.804;2022-07-24T09:26:55;99619.56;;;23.13;57.51
70027;BME280;57506;50.092;15.804;2022-07-24T09:29:23;99623.66;;;23.10;57.16
70027;BME280;57506;50.092;15.804;2022-07-24T09:31:58;99613.28;;;23.22;56.45
70027;BME280;57506;50.092;15.804;2022-07-24T09:34:25;99620.84;;;23.00;58.51
70027;BME280;57506;50.092;15.804;2022-07-24T09:37:06;99620.81;;;22.95;57.61
70027;BME280;57506;50.092;15.804;2022-07-24T09:39:34;99608.97;;;22.94;57.48
70027;BME280;57506;50.092;15.804;2022-07-24T09:42:02;99619.91;;;23.21;55.84
70027;BME280;57506;50.092;15.804;2022-07-24T09:44:28;99621.78;;;23.16;56.19
70027;BME280;57506;50.092;15.804;2022-07-24T09:47:09;99615.50;;;23.25;55.71
70027;BME280;57506;50.092;15.804;2022-07-24T09:49:37;99616.44;;;23.46;53.33
70027;BME280;57506;50.092;15.804;2022-07-24T09:52:15;99611.84;;;23.57;55.79
70027;BME280;57506;50.092;15.804;2022-07-24T09:57:25;99620.38;;;23.60;53.92
70027;BME280;57506;50.092;15.804;2022-07-24T10:02:18;99620.66;;;23.59;50.86
70027;BME280;57506;50.092;15.804;2022-07-24T10:04:45;99606.31;;;23.52;53.66
70027;BME280;57506;50.092;15.804;2022-07-24T10:07:14;99604.66;;;23.56;53.01
70027;BME280;57506;50.092;15.804;2022-07-24T10:09:42;99596.16;;;23.57;54.14
70027;BME280;57506;50.092;15.804;2022-07-24T10:12:20;99591.50;;;23.63;57.54
70027;BME280;57506;50.092;15.804;2022-07-24T10:14:47;99596.84;;;23.95;51.90
70027;BME280;57506;50.092;15.804;2022-07-24T10:17:14;99578.63;;;23.89;50.27
70027;BME280;57506;50.092;15.804;2022-07-24T10:19:41;99598.22;;;23.97;51.94
70027;BME280;57506;50.092;15.804;2022-07-24T10:22:12;99591.09;;;24.12;49.13
70027;BME280;57506;50.092;15.804;2022-07-24T10:24:48;99595.22;;;24.19;48.48
70027;BME280;57506;50.092;15.804;2022-07-24T10:27:25;99582.81;;;24.06;50.72
70027;BME280;57506;50.092;15.804;2022-07-24T10:30:02;99578.97;;;24.02;52.02
70027;BME280;57506;50.092;15.804;2022-07-24T10:32:30;99581.25;;;24.46;51.38
70027;BME280;57506;50.092;15.804;2022-07-24T10:45:43;99574.91;;;24.46;50.39
70027;BME280;57506;50.092;15.804;2022-07-24T10:51:06;99579.03;;;24.43;47.40
70027;BME280;57506;50.092;15.804;2022-07-24T10:56:23;99574.03;;;24.86;47.27
70027;BME280;57506;50.092;15.804;2022-07-24T10:59:03;99576.25;;;24.53;47.49
70027;BME280;57506;50.092;15.804;2022-07-24T11:03:59;99558.63;;;24.54;43.50
70027;BME280;57506;50.092;15.804;2022-07-24T11:06:40;99573.25;;;24.65;48.74
70027;BME280;57506;50.092;15.804;2022-07-24T11:09:06;99560.56;;;24.74;45.16
70027;BME280;57506;50.092;15.804;2022-07-24T11:11:32;99575.72;;;24.71;43.87
70027;BME280;57506;50.092;15.804;2022-07-24T11:13:58;99560.56;;;24.44;42.96
70027;BME280;57506;50.092;15.804;2022-07-24T11:16:31;99551.97;;;24.86;43.30
70027;BME280;57506;50.092;15.804;2022-07-24T11:27:03;99523.03;;;24.88;43.95
70027;BME280;57506;50.092;15.804;2022-07-24T11:31:58;99539.56;;;25.14;43.72
70027;BME280;57506;50.092;15.804;2022-07-24T11:34:25;99532.16;;;24.99;41.57
70027;BME280;57506;50.092;15.804;2022-07-24T11:36:53;99540.13;;;24.90;42.01
70027;BME280;57506;50.092;15.804;2022-07-24T11:39:25;99553.34;;;25.14;43.45
70027;BME280;57506;50.092;15.804;2022-07-24T11:41:52;99549.75;;;25.08;42.07
70027;BME280;57506;50.092;15.804;2022-07-24T11:44:47;99547.00;;;25.03;42.68
70027;BME280;57506;50.092;15.804;2022-07-24T11:47:19;99544.25;;;25.03;43.40
70027;BME280;57506;50.092;15.804;2022-07-24T11:54:40;99526.47;;;25.39;44.98
70027;BME280;57506;50.092;15.804;2022-07-24T11:59:47;99524.75;;;25.54;38.91
70027;BME280;57506;50.092;15.804;2022-07-24T12:02:12;99526.41;;;25.55;39.45
70027;BME280;57506;50.092;15.804;2022-07-24T12:04:39;99537.44;;;25.65;41.16
70027;BME280;57506;50.092;15.804;2022-07-24T12:07:06;99526.97;;;25.62;40.29
70027;BME280;57506;50.092;15.804;2022-07-24T12:09:32;99511.41;;;25.76;40.11
70027;BME280;57506;50.092;15.804;2022-07-24T12:11:58;99513.31;;;25.81;40.39
70027;BME280;57506;50.092;15.804;2022-07-24T12:14:23;99512.94;;;25.97;40.99
70027;BME280;57506;50.092;15.804;2022-07-24T12:16:55;99516.22;;;25.99;40.04
70027;BME280;57506;50.092;15.804;2022-07-24T12:19:23;99515.72;;;25.92;39.03
70027;BME280;57506;50.092;15.804;2022-07-24T12:21:52;99521.28;;;25.82;39.08
70027;BME280;57506;50.092;15.804;2022-07-24T12:24:19;99525.19;;;25.81;40.75
70027;BME280;57506;50.092;15.804;2022-07-24T12:26:56;99520.69;;;25.90;40.28
70027;BME280;57506;50.092;15.804;2022-07-24T12:29:24;99515.31;;;25.70;40.01
70027;BME280;57506;50.092;15.804;2022-07-24T12:32:14;99507.34;;;25.63;39.52
70027;BME280;57506;50.092;15.804;2022-07-24T12:34:42;99503.16;;;25.71;40.52
70027;BME280;57506;50.092;15.804;2022-07-24T12:37:20;99502.78;;;26.22;37.67
70027;BME280;57506;50.092;15.804;2022-07-24T12:39:47;99515.78;;;26.55;37.50
70027;BME280;57506;50.092;15.804;2022-07-24T12:42:13;99512.13;;;26.31;37.68
70027;BME280;57506;50.092;15.804;2022-07-24T12:44:43;99517.28;;;26.42;37.30
70027;BME280;57506;50.092;15.804;2022-07-24T12:47:13;99504.47;;;26.18;38.11
70027;BME280;57506;50.092;15.804;2022-07-24T12:49:43;99498.22;;;26.41;38.91
70027;BME280;57506;50.092;15.804;2022-07-24T12:52:20;99494.47;;;26.61;37.84
70027;BME280;57506;50.092;15.804;2022-07-24T12:54:49;99495.78;;;26.63;36.28
70027;BME280;57506;50.092;15.804;2022-07-24T12:57:15;99502.88;;;26.74;35.89
70027;BME280;57506;50.092;15.804;2022-07-24T12:59:43;99490.41;;;26.77;35.85
70027;BME280;57506;50.092;15.804;2022-07-24T13:02:11;99503.09;;;26.54;36.26
70027;BME280;57506;50.092;15.804;2022-07-24T13:04:46;99503.81;;;26.36;34.41
70027;BME280;57506;50.092;15.804;2022-07-24T13:07:13;99496.47;;;26.16;36.55
70027;BME280;57506;50.092;15.804;2022-07-24T13:09:39;99488.78;;;26.13;37.41
70027;BME280;57506;50.092;15.804;2022-07-24T13:12:07;99478.97;;;26.31;35.46
70027;BME280;57506;50.092;15.804;2022-07-24T13:14:33;99471.84;;;26.20;35.88
70027;BME280;57506;50.092;15.804;2022-07-24T13:17:16;99481.66;;;26.41;36.73
70027;BME280;57506;50.092;15.804;2022-07-24T13:19:44;99475.69;;;26.58;35.78
70027;BME280;57506;50.092;15.804;2022-07-24T13:22:10;99482.78;;;26.64;34.54
70027;BME280;57506;50.092;15.804;2022-07-24T13:24:36;99484.09;;;26.71;36.74
70027;BME280;57506;50.092;15.804;2022-07-24T13:27:04;99477.22;;;26.69;35.56